createdAt,value
2022-09-06T00:04:54.576Z,100598.94
2022-09-06T00:09:55.215Z,100599.97
2022-09-06T00:14:56.121Z,100608.66
2022-09-06T00:19:58.085Z,100596.88
2022-09-06T00:24:58.652Z,100595.28
2022-09-06T00:29:59.274Z,100597.03
2022-09-06T00:35:01.209Z,100593.78
2022-09-06T00:40:01.912Z,100587.97
2022-09-06T00:45:03.052Z,100593.50
2022-09-06T00:50:06.487Z,100591.81
2022-09-06T00:55:08.098Z,100582.25
2022-09-06T01:00:10.539Z,100590.09
2022-09-06T01:05:13.971Z,100583.41
2022-09-06T01:10:30.781Z,100591.38
2022-09-06T01:15:40.965Z,100583.63
2022-09-06T01:20:52.862Z,100577.06
2022-09-06T01:26:04.994Z,100575.34
2022-09-06T01:31:18.471Z,100583.22
2022-09-06T01:36:24.996Z,100577.91
2022-09-06T01:41:25.755Z,100580.44
2022-09-06T01:46:34.458Z,100579.00
2022-09-06T01:51:41.500Z,100569.88
2022-09-06T01:56:52.789Z,100580.16
2022-09-06T02:02:04.636Z,100582.75
2022-09-06T02:07:11.538Z,100584.28
2022-09-06T02:12:15.297Z,100585.16
2022-09-06T02:17:22.122Z,100585.38
2022-09-06T02:22:26.036Z,100575.69
2022-09-06T02:27:27.082Z,100583.69
2022-09-06T02:32:31.482Z,100593.34
2022-09-06T02:37:32.086Z,100586.69
2022-09-06T02:42:32.763Z,100589.44
2022-09-06T02:47:34.699Z,100589.63
2022-09-06T02:52:35.402Z,100591.44
2022-09-06T02:57:36.033Z,100579.81
2022-09-06T03:02:38.088Z,100584.53
2022-09-06T03:07:38.742Z,100580.28
2022-09-06T03:12:39.387Z,100576.25
2022-09-06T03:17:42.179Z,100571.31
2022-09-06T03:22:43.093Z,100572.22
2022-09-06T03:27:44.838Z,100566.78
2022-09-06T03:32:46.766Z,100564.19
2022-09-06T03:37:47.400Z,100562.88
2022-09-06T03:42:48.040Z,100563.19
2022-09-06T03:47:50.017Z,100566.91
2022-09-06T03:52:50.622Z,100564.28
2022-09-06T03:57:51.222Z,100558.16
2022-09-06T04:02:53.140Z,100559.59
2022-09-06T04:07:53.798Z,100561.28
2022-09-06T04:12:54.452Z,100557.59
2022-09-06T04:17:56.401Z,100551.88
2022-09-06T04:22:57.042Z,100551.97
2022-09-06T04:27:57.703Z,100551.03
2022-09-06T04:32:59.655Z,100541.66
2022-09-06T04:38:01.691Z,100539.91
2022-09-06T04:43:02.307Z,100539.00
2022-09-06T04:48:04.407Z,100528.41
2022-09-06T04:53:05.070Z,100525.66
2022-09-06T04:58:06.466Z,100529.81
2022-09-06T05:03:09.866Z,100526.94
2022-09-06T05:08:10.557Z,100523.94
2022-09-06T05:13:11.198Z,100519.25
2022-09-06T05:18:16.168Z,100525.19
2022-09-06T05:23:16.956Z,100526.44
2022-09-06T05:28:18.146Z,100538.19
2022-09-06T05:33:23.710Z,100527.28
2022-09-06T05:38:28.126Z,100525.59
2022-09-06T05:43:30.247Z,100517.69
2022-09-06T05:48:36.590Z,100515.63
2022-09-06T05:53:38.898Z,100520.09
2022-09-06T05:58:39.828Z,100539.13
2022-09-06T06:03:41.820Z,100521.47
2022-09-06T06:08:42.508Z,100524.38
2022-09-06T06:13:43.739Z,100520.09
2022-09-06T06:18:49.987Z,100510.91
2022-09-06T06:23:54.667Z,100504.81
2022-09-06T06:28:55.638Z,100512.53
2022-09-06T06:33:58.285Z,100510.75
2022-09-06T06:38:59.670Z,100501.63
2022-09-06T06:44:03.007Z,100505.22
2022-09-06T06:49:05.318Z,100513.81
2022-09-06T06:54:06.612Z,100505.00
2022-09-06T06:59:08.746Z,100514.84
2022-09-06T07:04:12.243Z,100508.38
2022-09-06T07:09:12.841Z,100512.53
2022-09-06T07:14:13.477Z,100510.78
2022-09-06T07:24:36.194Z,100513.88
2022-09-06T07:29:36.857Z,100515.56
2022-09-06T07:34:39.707Z,100511.72
2022-09-06T07:39:41.350Z,100516.56
2022-09-06T07:44:42.076Z,100507.88
2022-09-06T07:55:05.300Z,100524.50
2022-09-06T08:00:06.549Z,100519.00
2022-09-06T08:10:34.295Z,100512.22
2022-09-06T08:15:35.336Z,100516.09
2022-09-06T08:20:37.337Z,100517.47
2022-09-06T08:25:38.075Z,100522.31
2022-09-06T08:30:38.732Z,100529.84
2022-09-06T08:35:40.690Z,100533.72
2022-09-06T08:40:41.355Z,100528.22
2022-09-06T08:45:42.769Z,100514.00
2022-09-06T08:50:57.206Z,100510.31
2022-09-06T08:56:06.115Z,100509.22
2022-09-06T09:01:11.402Z,100505.63
2022-09-06T09:06:13.469Z,100494.56
2022-09-06T09:11:18.154Z,100490.06
2022-09-06T09:16:20.054Z,100488.28
2022-09-06T09:21:29.615Z,100488.78
2022-09-06T09:26:37.400Z,100474.13
2022-09-06T09:31:40.239Z,100474.50
2022-09-06T09:42:04.052Z,100474.25
2022-09-06T09:47:22.849Z,100473.44
2022-09-06T09:52:29.209Z,100447.19
2022-09-06T09:57:32.197Z,100447.19
2022-09-06T10:02:39.015Z,100431.50
2022-09-06T10:07:46.948Z,100429.06
2022-09-06T10:12:47.572Z,100430.03
2022-09-06T10:17:51.224Z,100429.13
2022-09-06T10:23:02.677Z,100426.19
2022-09-06T10:28:21.533Z,100427.66
2022-09-06T10:33:32.262Z,100411.25
2022-09-06T10:38:49.305Z,100419.91
2022-09-06T10:43:58.865Z,100414.22
2022-09-06T10:48:59.910Z,100411.03
2022-09-06T10:54:09.211Z,100409.59
2022-09-06T11:10:07.838Z,100396.13
2022-09-06T11:15:11.539Z,100396.66
2022-09-06T11:20:18.078Z,100387.66
2022-09-06T11:26:02.227Z,100375.78
2022-09-06T11:31:04.852Z,100375.91
2022-09-06T11:36:21.133Z,100374.34
2022-09-06T11:41:27.629Z,100373.06
2022-09-06T11:47:02.594Z,100367.91
2022-09-06T11:52:04.175Z,100354.91
2022-09-06T11:57:16.069Z,100359.50
2022-09-06T12:02:36.387Z,100354.09
2022-09-06T12:07:38.320Z,100344.00
2022-09-06T12:12:46.738Z,100341.47
2022-09-06T12:17:47.921Z,100331.63
2022-09-06T12:22:57.688Z,100309.47
2022-09-06T12:28:02.486Z,100316.75
2022-09-06T12:33:06.289Z,100319.19
2022-09-06T12:38:09.383Z,100317.28
2022-09-06T12:43:14.568Z,100311.63
2022-09-06T12:48:27.986Z,100311.75
2022-09-06T12:53:28.743Z,100326.38
2022-09-06T12:58:31.088Z,100314.63
2022-09-06T13:03:36.350Z,100313.63
2022-09-06T13:08:44.589Z,100312.50
2022-09-06T13:13:52.651Z,100310.66
2022-09-06T13:18:54.122Z,100309.78
2022-09-06T13:23:55.031Z,100315.22
2022-09-06T13:28:58.034Z,100318.34
2022-09-06T13:34:00.491Z,100330.91
2022-09-06T13:39:03.803Z,100376.84
2022-09-06T13:44:07.990Z,100405.13
2022-09-06T13:49:08.941Z,100412.63
2022-09-06T13:54:12.384Z,100422.75
2022-09-06T13:59:14.466Z,100452.44
2022-09-06T14:04:19.236Z,100463.94
2022-09-06T14:09:19.956Z,100462.25
2022-09-06T14:14:21.984Z,100452.78
2022-09-06T14:19:23.233Z,100443.34
2022-09-06T14:24:24.102Z,100441.75
2022-09-06T14:29:26.114Z,100444.16
2022-09-06T14:34:27.698Z,100434.88
2022-09-06T14:39:28.516Z,100419.72
2022-09-06T14:44:30.582Z,100400.97
2022-09-06T14:49:31.224Z,100393.81
2022-09-06T14:54:31.939Z,100388.09
2022-09-06T14:59:34.310Z,100371.19
2022-09-06T15:04:35.066Z,100366.66
2022-09-06T15:09:35.691Z,100354.63
2022-09-06T15:14:37.939Z,100346.41
2022-09-06T15:19:38.746Z,100345.22
2022-09-06T15:24:40.464Z,100344.63
2022-09-06T15:29:42.533Z,100342.75
2022-09-06T15:34:43.163Z,100334.94
2022-09-06T15:39:43.828Z,100322.47
2022-09-06T15:44:45.787Z,100306.66
2022-09-06T15:49:46.413Z,100306.31
2022-09-06T15:55:04.550Z,100317.47
2022-09-06T16:00:07.367Z,100301.50
2022-09-06T16:05:08.593Z,100311.41
2022-09-06T16:10:11.538Z,100310.53
2022-09-06T16:15:13.692Z,100323.63
2022-09-06T16:20:14.567Z,100333.06
2022-09-06T16:25:15.208Z,100324.13
2022-09-06T16:30:17.439Z,100314.25
2022-09-06T16:35:18.823Z,100313.25
2022-09-06T16:40:19.528Z,100317.97
2022-09-06T16:45:21.548Z,100315.38
2022-09-06T16:50:22.337Z,100307.16
2022-09-06T16:55:23.137Z,100301.88
2022-09-06T17:00:25.157Z,100295.16
2022-09-06T17:05:25.767Z,100296.41
2022-09-06T17:10:26.609Z,100283.41
2022-09-06T17:15:48.649Z,100285.28
2022-09-06T17:20:56.147Z,100298.25
2022-09-06T17:25:56.778Z,100291.06
2022-09-06T17:31:01.186Z,100289.31
2022-09-06T17:36:10.369Z,100296.66
2022-09-06T17:41:20.787Z,100297.25
2022-09-06T17:46:28.471Z,100298.91
2022-09-06T17:51:29.524Z,100306.66
2022-09-06T17:56:30.526Z,100313.94
2022-09-06T18:01:36.192Z,100319.84
2022-09-06T18:06:39.976Z,100323.44
2022-09-06T18:11:41.250Z,100320.75
2022-09-06T18:16:45.258Z,100323.19
2022-09-06T18:21:46.986Z,100326.19
2022-09-06T18:26:47.611Z,100325.53
2022-09-06T18:31:51.356Z,100322.81
2022-09-06T18:36:52.396Z,100307.59
2022-09-06T18:42:02.794Z,100305.31
2022-09-06T18:47:06.882Z,100298.69
2022-09-06T18:52:08.098Z,100304.31
2022-09-06T18:57:09.130Z,100295.75
2022-09-06T19:02:11.380Z,100300.38
2022-09-06T19:07:12.068Z,100305.06
2022-09-06T19:12:12.679Z,100291.13
2022-09-06T19:17:14.682Z,100303.31
2022-09-06T19:22:15.521Z,100300.19
2022-09-06T19:27:16.212Z,100301.13
2022-09-06T19:32:19.225Z,100307.97
2022-09-06T19:37:23.704Z,100321.94
2022-09-06T19:42:24.350Z,100308.88
2022-09-06T19:47:26.317Z,100308.28
2022-09-06T19:52:27.024Z,100299.03
2022-09-06T19:57:27.698Z,100295.88
2022-09-06T20:02:29.738Z,100284.84
2022-09-06T20:07:30.477Z,100283.53
2022-09-06T20:12:32.324Z,100275.94
2022-09-06T20:17:34.994Z,100275.19
2022-09-06T20:22:35.711Z,100267.59
2022-09-06T20:27:36.346Z,100265.78
2022-09-06T20:32:38.313Z,100267.59
2022-09-06T20:37:38.959Z,100266.91
2022-09-06T20:42:42.208Z,100263.63
2022-09-06T20:47:44.227Z,100261.16
2022-09-06T20:52:45.436Z,100248.91
2022-09-06T20:57:47.708Z,100244.09
2022-09-06T21:02:49.673Z,100241.50
2022-09-06T21:07:50.336Z,100235.47
2022-09-06T21:12:51.142Z,100220.06
2022-09-06T21:17:53.202Z,100216.00
2022-09-06T21:22:53.815Z,100212.50
2022-09-06T21:27:55.928Z,100215.34
2022-09-06T21:32:57.953Z,100212.19
2022-09-06T21:37:58.575Z,100201.09
2022-09-06T21:42:59.182Z,100202.00
2022-09-06T21:48:01.139Z,100203.00
2022-09-06T21:53:01.743Z,100203.06
2022-09-06T21:58:02.346Z,100202.22
2022-09-06T22:03:04.605Z,100199.47
2022-09-06T22:08:05.281Z,100183.97
2022-09-06T22:13:05.922Z,100176.28
2022-09-06T22:18:08.613Z,100184.25
2022-09-06T22:23:10.378Z,100176.66
2022-09-06T22:28:10.975Z,100178.44
2022-09-06T22:33:12.922Z,100179.34
2022-09-06T22:38:13.562Z,100185.03
2022-09-06T22:43:15.287Z,100191.94
2022-09-06T22:48:17.427Z,100189.56
2022-09-06T22:53:19.024Z,100200.00
2022-09-06T22:58:19.664Z,100197.44
2022-09-06T23:03:22.022Z,100194.72
2022-09-06T23:08:22.688Z,100196.63
2022-09-06T23:13:23.321Z,100189.88
2022-09-06T23:18:25.361Z,100183.94
2022-09-06T23:23:25.977Z,100183.00
2022-09-06T23:28:26.579Z,100186.56
2022-09-06T23:33:29.104Z,100170.56
2022-09-06T23:38:29.801Z,100161.91
2022-09-06T23:43:30.985Z,100156.84
2022-09-06T23:48:33.118Z,100158.03
2022-09-06T23:53:34.282Z,100160.03
2022-09-06T23:58:34.955Z,100145.31
